Time;durP1;ratioP1;P1;durP2;ratioP2;P2;SDS_P1;SDS_P2;PMS_P1;PMS_P2;Temp;Humidity;BMP_temperature;BMP_pressure;BME280_temperature;BME280_humidity;BME280_pressure;Samples;Min_cycle;Max_cycle;Signal;HPM_P1;HPM_P2
2023/09/17 00:00:32;;;;;;;32.55;29.05;;;486.80;2380.80;;;;;;5061292;28;20028;-69
2023/09/17 00:02:58;;;;;;;34.10;27.75;;;486.70;2380.80;;;;;;5088141;28;20462;-65
2023/09/17 00:05:24;;;;;;;33.97;27.00;;;486.70;2380.80;;;;;;5088637;28;20106;-67
2023/09/17 00:07:50;;;;;;;31.38;26.55;;;486.50;2380.80;;;;;;5089385;28;20042;-67
2023/09/17 00:10:16;;;;;;;31.98;25.40;;;486.50;2380.80;;;;;;5088893;28;20466;-67
2023/09/17 00:12:42;;;;;;;29.85;26.23;;;486.50;2380.80;;;;;;5088879;28;20089;-68
2023/09/17 00:15:08;;;;;;;30.88;26.80;;;486.40;2380.80;;;;;;5088695;28;20024;-64
2023/09/17 00:17:34;;;;;;;31.95;26.35;;;461.70;2380.80;;;;;;5088968;28;20032;-66
2023/09/17 00:20:00;;;;;;;29.30;26.17;;;461.70;2380.80;;;;;;5088941;28;20024;-67
2023/09/17 00:22:26;;;;;;;33.63;26.55;;;461.70;2380.80;;;;;;5089266;28;20382;-67
2023/09/17 00:24:52;;;;;;;33.67;26.48;;;486.40;2380.80;;;;;;5088812;28;20481;-68
2023/09/17 00:27:17;;;;;;;33.90;25.55;;;486.40;2380.80;;;;;;5089112;28;20028;-67
2023/09/17 00:29:43;;;;;;;31.90;28.25;;;486.40;2380.80;;;;;;5088536;28;20016;-66
2023/09/17 00:32:09;;;;;;;26.92;24.02;;;486.40;2380.80;;;;;;5088732;28;20027;-67
2023/09/17 00:34:34;;;;;;;30.60;25.73;;;486.40;2380.80;;;;;;5076537;28;20033;-67
2023/09/17 00:37:00;;;;;;;31.73;26.27;;;486.40;2380.80;;;;;;5069838;28;20016;-66
2023/09/17 00:39:27;;;;;;;31.95;27.25;;;461.70;2380.80;;;;;;5086923;28;20489;-66
2023/09/17 00:41:53;;;;;;;29.80;26.42;;;461.70;2380.80;;;;;;5085600;28;20036;-63
2023/09/17 00:44:19;;;;;;;35.67;28.42;;;461.70;2380.80;;;;;;5074506;28;20036;-63
2023/09/17 00:46:46;;;;;;;33.70;28.02;;;461.70;2380.80;;;;;;5088952;28;20043;-67
2023/09/17 00:49:13;;;;;;;30.35;27.08;;;461.60;2380.80;;;;;;5088490;28;20024;-66
2023/09/17 00:51:41;;;;;;;32.90;26.65;;;461.70;2380.80;;;;;;5088979;28;20087;-67
2023/09/17 00:54:09;;;;;;;31.50;27.73;;;461.70;2380.80;;;;;;5088667;28;20040;-67
2023/09/17 00:56:36;;;;;;;33.33;27.13;;;461.60;2380.80;;;;;;5088558;28;20027;-66
2023/09/17 00:59:05;;;;;;;29.95;26.73;;;461.60;2380.80;;;;;;5088655;28;20028;-65
2023/09/17 01:01:31;;;;;;;28.85;25.27;;;461.60;2380.80;;;;;;5088306;28;20027;-69
2023/09/17 01:03:57;;;;;;;27.83;24.60;;;461.60;2380.80;;;;;;5088904;28;20036;-68
2023/09/17 01:06:22;;;;;;;27.85;25.05;;;461.60;2380.80;;;;;;5088084;28;20028;-67
2023/09/17 01:08:49;;;;;;;29.08;25.30;;;461.60;2380.80;;;;;;5088102;28;20020;-65
2023/09/17 01:11:15;;;;;;;34.60;26.20;;;461.60;2380.80;;;;;;5088206;28;20115;-66
2023/09/17 01:13:42;;;;;;;31.55;26.63;;;461.50;2380.80;;;;;;5063443;28;20476;-66
2023/09/17 01:16:09;;;;;;;31.00;26.75;;;461.50;2380.80;;;;;;5068497;28;20036;-67
2023/09/17 01:18:35;;;;;;;30.20;26.38;;;461.50;2380.80;;;;;;5092354;28;20024;-67
2023/09/17 01:21:20;;;;;;;29.60;26.20;;;461.50;2380.80;;;;;;5091664;28;20036;-66
2023/09/17 01:24:13;;;;;;;30.25;27.05;;;461.50;2380.80;;;;;;5092280;28;20518;-68
2023/09/17 01:26:41;;;;;;;27.83;24.83;;;461.40;2380.80;;;;;;5068051;28;20027;-65
2023/09/17 01:29:07;;;;;;;33.00;26.95;;;461.40;2380.80;;;;;;5091957;28;20058;-64
2023/09/17 01:31:34;;;;;;;35.75;27.15;;;461.40;2380.80;;;;;;5091633;28;20043;-69
2023/09/17 01:34:00;;;;;;;28.98;24.98;;;461.40;2380.80;;;;;;5091035;28;20036;-68
2023/09/17 01:36:35;;;;;;;29.27;26.15;;;461.30;2380.80;;;;;;5091909;28;20065;-68
2023/09/17 01:39:05;;;;;;;30.45;26.02;;;461.20;2380.80;;;;;;5089877;28;20089;-69
2023/09/17 01:41:33;;;;;;;31.77;26.35;;;461.20;2380.80;;;;;;5091731;28;20031;-66
2023/09/17 01:44:03;;;;;;;34.13;26.42;;;461.10;2380.80;;;;;;5091151;28;20033;-68
2023/09/17 01:46:30;;;;;;;31.30;26.88;;;461.10;2380.80;;;;;;5091653;28;20107;-69
2023/09/17 01:48:57;;;;;;;33.00;27.60;;;461.10;2380.80;;;;;;5083309;28;20023;-65
2023/09/17 01:51:23;;;;;;;36.40;29.77;;;461.10;2380.80;;;;;;5063583;28;20462;-69
2023/09/17 01:53:50;;;;;;;33.70;28.63;;;461.10;2380.80;;;;;;5087541;28;20382;-68
2023/09/17 01:56:17;;;;;;;30.30;27.00;;;461.10;2380.80;;;;;;5091160;28;20035;-68
2023/09/17 01:58:43;;;;;;;33.72;27.85;;;461.00;2380.80;;;;;;5091113;28;20024;-68
2023/09/17 02:01:09;;;;;;;32.60;26.92;;;460.90;2380.80;;;;;;5091100;28;20537;-70
2023/09/17 02:03:34;;;;;;;35.22;27.52;;;460.80;2380.80;;;;;;5091309;28;20020;-67
2023/09/17 02:06:04;;;;;;;34.00;28.08;;;436.10;2355.20;;;;;;5091474;28;20048;-67
2023/09/17 02:08:30;;;;;;;32.75;28.42;;;436.00;2355.20;;;;;;5090805;28;20035;-68
2023/09/17 02:10:56;;;;;;;31.73;26.42;;;435.90;2355.20;;;;;;5091577;28;20371;-68
2023/09/17 02:13:22;;;;;;;31.42;27.60;;;435.90;2355.20;;;;;;5091157;28;20042;-65
2023/09/17 02:15:48;;;;;;;33.13;27.95;;;435.90;2355.20;;;;;;5090640;28;20056;-68
2023/09/17 02:18:14;;;;;;;34.33;28.55;;;435.90;2355.20;;;;;;5073391;28;20020;-68
2023/09/17 02:20:40;;;;;;;34.53;27.42;;;435.80;2355.20;;;;;;5081648;28;20111;-68
2023/09/17 02:23:06;;;;;;;35.17;27.52;;;435.70;2355.20;;;;;;5090361;28;20024;-64
2023/09/17 02:25:32;;;;;;;31.35;26.40;;;435.80;2355.20;;;;;;5090474;28;20489;-67
2023/09/17 02:27:58;;;;;;;29.88;26.63;;;435.90;2355.20;;;;;;5071996;28;20008;-67
2023/09/17 02:30:25;;;;;;;33.50;27.75;;;436.00;2355.20;;;;;;5083763;28;20473;-68
2023/09/17 02:32:51;;;;;;;31.25;25.45;;;436.00;2355.20;;;;;;5090121;28;20103;-67
2023/09/17 02:35:17;;;;;;;30.92;25.92;;;436.00;2355.20;;;;;;5090995;28;20055;-67
2023/09/17 02:37:42;;;;;;;30.88;24.48;;;436.00;2355.20;;;;;;5089905;28;20062;-64
2023/09/17 02:40:09;;;;;;;29.70;26.08;;;435.90;2355.20;;;;;;5090632;28;20051;-66
2023/09/17 02:42:38;;;;;;;32.67;26.30;;;435.90;2355.20;;;;;;5090929;28;20028;-68
2023/09/17 02:45:05;;;;;;;29.83;23.95;;;435.90;2355.20;;;;;;5090665;28;20323;-65
2023/09/17 02:47:32;;;;;;;34.13;27.55;;;436.00;2355.20;;;;;;5089953;28;20108;-68
2023/09/17 02:49:57;;;;;;;30.40;25.02;;;436.00;2355.20;;;;;;5089756;28;20035;-66
2023/09/17 02:52:23;;;;;;;30.52;26.52;;;436.10;2355.20;;;;;;5089938;28;20016;-69
2023/09/17 02:54:49;;;;;;;30.83;25.95;;;436.10;2355.20;;;;;;5090283;28;20038;-65
2023/09/17 02:57:14;;;;;;;29.27;24.20;;;436.10;2355.20;;;;;;5090450;28;20047;-68
2023/09/17 02:59:40;;;;;;;27.98;24.88;;;436.00;2355.20;;;;;;5074831;28;20478;-64
2023/09/17 03:02:06;;;;;;;26.13;22.58;;;435.90;2355.20;;;;;;5088292;28;20012;-66
2023/09/17 03:04:33;;;;;;;28.83;23.98;;;435.90;2355.20;;;;;;5090153;28;20458;-67
2023/09/17 03:06:59;;;;;;;29.48;24.20;;;435.90;2355.20;;;;;;5089692;28;20012;-66
2023/09/17 03:09:25;;;;;;;28.20;24.17;;;435.90;1971.20;;;;;;5090011;28;20028;-63
2023/09/17 03:11:51;;;;;;;32.45;25.27;;;435.90;2355.20;;;;;;5090282;28;20544;-69
2023/09/17 03:14:16;;;;;;;27.65;24.75;;;435.90;2355.20;;;;;;5090247;28;20478;-68
2023/09/17 03:16:42;;;;;;;32.25;24.70;;;435.90;2355.20;;;;;;5089556;28;20012;-69
2023/09/17 03:19:08;;;;;;;29.17;23.67;;;435.80;2355.20;;;;;;5090144;28;20027;-66
2023/09/17 03:21:38;;;;;;;29.15;24.60;;;435.80;2355.20;;;;;;5089044;28;20111;-66
2023/09/17 03:24:05;;;;;;;34.78;26.92;;;435.80;2355.20;;;;;;5088699;28;20028;-66
2023/09/17 03:26:30;;;;;;;33.25;25.02;;;435.90;2355.20;;;;;;5089469;28;20415;-66
2023/09/17 03:28:56;;;;;;;27.92;24.13;;;435.90;2124.80;;;;;;5089652;28;20103;-69
2023/09/17 03:31:23;;;;;;;25.13;21.63;;;435.90;2355.20;;;;;;5069829;28;20381;-68
2023/09/17 03:33:49;;;;;;;28.58;23.90;;;435.80;2355.20;;;;;;5082581;28;20462;-65
2023/09/17 03:36:15;;;;;;;28.98;23.83;;;435.80;2355.20;;;;;;5089352;28;20020;-63
2023/09/17 03:38:41;;;;;;;27.58;23.15;;;435.80;2355.20;;;;;;5089119;28;20040;-66
2023/09/17 03:41:07;;;;;;;29.70;25.15;;;435.80;2355.20;;;;;;5089494;28;20059;-64
2023/09/17 03:43:34;;;;;;;33.85;25.33;;;435.70;2355.20;;;;;;5076540;28;20496;-68
2023/09/17 03:46:03;;;;;;;30.35;24.88;;;435.70;2355.20;;;;;;5088568;28;20009;-65
2023/09/17 03:48:30;;;;;;;28.55;25.33;;;435.60;2355.20;;;;;;5089539;28;20094;-67
2023/09/17 03:50:55;;;;;;;30.42;25.90;;;435.60;2355.20;;;;;;5089708;28;20103;-65
2023/09/17 03:53:21;;;;;;;28.75;24.02;;;435.60;2355.20;;;;;;5089191;28;20466;-65
2023/09/17 03:55:48;;;;;;;33.22;26.90;;;435.50;2176.00;;;;;;5089319;28;20022;-66
2023/09/17 03:58:14;;;;;;;28.90;24.02;;;435.60;2355.20;;;;;;5089305;28;20028;-66
2023/09/17 04:00:44;;;;;;;36.33;23.95;;;436.00;2355.20;;;;;;5088430;28;20077;-68
2023/09/17 04:03:09;;;;;;;25.70;23.00;;;435.60;2355.20;;;;;;5066085;28;20047;-68
2023/09/17 04:05:36;;;;;;;27.67;23.60;;;435.60;2355.20;;;;;;5089356;28;20074;-66
2023/09/17 04:08:03;;;;;;;26.42;22.70;;;435.60;2355.20;;;;;;5088607;28;20024;-64
2023/09/17 04:10:29;;;;;;;28.98;23.15;;;435.60;2355.20;;;;;;5089364;28;20036;-66
2023/09/17 04:12:54;;;;;;;27.17;22.92;;;435.60;2355.20;;;;;;5087080;28;20177;-64
2023/09/17 04:15:20;;;;;;;26.17;22.10;;;435.50;2355.20;;;;;;5089029;28;20131;-67
2023/09/17 04:17:47;;;;;;;32.25;23.95;;;435.60;1996.80;;;;;;5088580;28;20039;-67
2023/09/17 04:20:18;;;;;;;31.38;23.77;;;435.60;2355.20;;;;;;5089181;28;20101;-64
2023/09/17 04:22:47;;;;;;;27.80;23.08;;;435.50;2355.20;;;;;;5088895;28;20031;-67
2023/09/17 04:25:13;;;;;;;25.90;22.65;;;435.50;2355.20;;;;;;5089087;28;20115;-62
2023/09/17 04:27:41;;;;;;;26.15;22.52;;;435.50;2355.20;;;;;;5088968;28;20016;-65
2023/09/17 04:30:08;;;;;;;26.30;23.42;;;435.40;2355.20;;;;;;5089053;28;20020;-66
2023/09/17 04:32:39;;;;;;;27.73;24.13;;;435.50;2355.20;;;;;;5083492;28;20033;-65
2023/09/17 04:35:07;;;;;;;28.52;24.00;;;435.50;2355.20;;;;;;5068540;28;20056;-64
2023/09/17 04:37:34;;;;;;;27.55;23.98;;;435.50;2355.20;;;;;;5085948;28;20048;-67
2023/09/17 04:40:00;;;;;;;26.95;24.02;;;435.60;2355.20;;;;;;5088461;28;20044;-66
2023/09/17 04:42:28;;;;;;;24.83;21.27;;;435.70;2355.20;;;;;;5088758;28;20428;-66
2023/09/17 04:44:54;;;;;;;30.20;21.75;;;435.80;2355.20;;;;;;5089381;28;20028;-67
2023/09/17 04:47:19;;;;;;;28.00;23.65;;;435.80;2355.20;;;;;;5088232;28;20020;-65
2023/09/17 04:49:45;;;;;;;31.00;21.65;;;435.90;2355.20;;;;;;5090306;28;20038;-66
2023/09/17 04:52:11;;;;;;;26.30;21.95;;;435.90;2355.20;;;;;;5091851;28;20359;-67
2023/09/17 04:54:39;;;;;;;26.98;22.88;;;435.80;2355.20;;;;;;5092956;28;20044;-65
2023/09/17 04:57:05;;;;;;;30.40;21.60;;;435.80;2355.20;;;;;;5092341;28;20020;-66
2023/09/17 04:59:31;;;;;;;24.92;21.13;;;435.90;2355.20;;;;;;5092903;28;20054;-66
2023/09/17 05:01:57;;;;;;;24.52;20.48;;;436.10;2355.20;;;;;;5092426;28;20054;-66
2023/09/17 05:04:24;;;;;;;24.30;19.73;;;460.90;2380.80;;;;;;5092481;28;20028;-65
2023/09/17 05:06:50;;;;;;;26.13;21.35;;;461.10;2380.80;;;;;;5091850;28;20103;-65
2023/09/17 05:09:16;;;;;;;24.73;21.10;;;461.40;2380.80;;;;;;5092913;28;20024;-66
2023/09/17 05:11:42;;;;;;;22.35;19.65;;;461.50;2380.80;;;;;;5073619;28;20019;-66
2023/09/17 05:14:08;;;;;;;27.85;22.70;;;461.40;2380.80;;;;;;5084363;28;20072;-68
2023/09/17 05:16:35;;;;;;;23.35;20.65;;;461.30;2380.80;;;;;;5090555;28;20023;-64
2023/09/17 05:19:01;;;;;;;27.70;21.48;;;461.30;2380.80;;;;;;5091810;28;20031;-67
2023/09/17 05:21:27;;;;;;;25.00;21.08;;;461.20;2380.80;;;;;;5092563;28;20065;-65
2023/09/17 05:23:53;;;;;;;27.73;21.80;;;461.30;2380.80;;;;;;5092238;28;20373;-66
2023/09/17 05:26:18;;;;;;;26.20;21.13;;;461.40;2380.80;;;;;;5092650;28;20540;-64
2023/09/17 05:28:44;;;;;;;24.45;20.60;;;461.60;2380.80;;;;;;5091939;28;20028;-65
2023/09/17 05:31:10;;;;;;;22.98;20.48;;;461.60;2380.80;;;;;;5091718;28;20020;-68
2023/09/17 05:33:35;;;;;;;20.83;18.63;;;486.40;2380.80;;;;;;5092069;28;20032;-66
2023/09/17 05:36:01;;;;;;;20.90;18.70;;;486.70;2380.80;;;;;;5091593;28;20024;-67
2023/09/17 05:38:27;;;;;;;25.30;19.85;;;487.20;2380.80;;;;;;5091841;28;20390;-66
2023/09/17 05:40:53;;;;;;;21.77;19.40;;;512.40;2380.80;;;;;;5091419;28;20522;-66
2023/09/17 05:43:19;;;;;;;24.42;18.85;;;512.90;2380.80;;;;;;5088701;28;20050;-65
2023/09/17 05:45:45;;;;;;;20.75;18.55;;;512.70;2380.80;;;;;;5075179;28;20360;-66
2023/09/17 05:48:11;;;;;;;19.70;17.60;;;537.70;2406.40;;;;;;5084752;28;20184;-67
2023/09/17 05:50:37;;;;;;;22.40;19.42;;;537.90;2406.40;;;;;;5091884;28;20378;-67
2023/09/17 05:53:03;;;;;;;21.55;19.35;;;538.00;2406.40;;;;;;5091484;28;20084;-66
2023/09/17 05:55:29;;;;;;;20.15;18.10;;;538.00;2406.40;;;;;;5091788;28;20028;-66
2023/09/17 05:57:55;;;;;;;21.92;19.70;;;538.10;2406.40;;;;;;5091899;28;20082;-64
2023/09/17 06:00:22;;;;;;;19.65;17.67;;;563.30;2432.00;;;;;;5084758;28;20378;-65
2023/09/17 06:02:48;;;;;;;19.30;16.50;;;;;;;;;;5072855;28;20020;-66
2023/09/17 06:05:14;;;;;;;18.55;16.63;;;640.90;2432.00;;;;;;5075809;28;20024;-67
2023/09/17 06:07:40;;;;;;;17.20;15.15;;;716.80;2432.00;;;;;;5091132;28;20154;-66
2023/09/17 06:10:06;;;;;;;16.60;15.00;;;743.10;2304.00;;;;;;5090759;28;20024;-66
2023/09/17 06:12:32;;;;;;;19.38;15.63;;;793.90;2124.80;;;;;;5091257;28;20108;-67
2023/09/17 06:14:58;;;;;;;16.88;15.13;;;794.50;1971.20;;;;;;5089933;28;20032;-67
2023/09/17 06:17:23;;;;;;;17.23;15.45;;;768.90;2022.40;;;;;;5071198;28;20028;-68
2023/09/17 06:19:49;;;;;;;18.23;16.52;;;793.80;1996.80;;;;;;5071952;28;20099;-66
2023/09/17 06:22:15;;;;;;;17.42;15.65;;;793.60;1996.80;;;;;;5078554;28;20028;-67
2023/09/17 06:24:40;;;;;;;16.63;15.25;;;819.60;1894.40;;;;;;5087578;28;20020;-67
2023/09/17 06:27:06;;;;;;;18.17;16.30;;;844.90;1868.80;;;;;;5091481;28;20059;-67
2023/09/17 06:29:32;;;;;;;19.65;15.48;;;844.90;1868.80;;;;;;5090606;28;20024;-66
2023/09/17 06:31:58;;;;;;;16.67;15.20;;;845.20;1843.20;;;;;;5090642;28;20024;-67
2023/09/17 06:34:23;;;;;;;16.60;14.73;;;845.50;1817.60;;;;;;5090677;28;20032;-68
2023/09/17 06:36:49;;;;;;;17.30;15.65;;;845.40;1817.60;;;;;;5090841;28;20111;-66
2023/09/17 06:39:15;;;;;;;17.65;15.90;;;870.80;1740.80;;;;;;5088195;28;20052;-66
2023/09/17 06:41:41;;;;;;;18.75;16.98;;;871.00;1715.20;;;;;;5078780;28;20024;-65
2023/09/17 06:44:06;;;;;;;17.38;15.60;;;921.60;1664.00;;;;;;5089076;28;20099;-67
2023/09/17 06:46:32;;;;;;;17.02;15.40;;;947.60;1587.20;;;;;;5078056;28;20089;-66
2023/09/17 06:48:58;;;;;;;17.52;15.95;;;922.10;1612.80;;;;;;5090658;28;20032;-67
2023/09/17 06:51:23;;;;;;;16.00;14.57;;;947.20;1587.20;;;;;;5080681;28;20025;-67
2023/09/17 06:53:49;;;;;;;18.05;16.48;;;948.10;1536.00;;;;;;5062467;28;20040;-66
2023/09/17 06:56:15;;;;;;;19.35;17.83;;;973.30;1536.00;;;;;;5090752;28;20048;-64
2023/09/17 06:58:42;;;;;;;18.23;16.58;;;947.90;1536.00;;;;;;5090025;28;20027;-66
2023/09/17 07:01:09;;;;;;;18.95;17.42;;;947.70;1561.60;;;;;;5090077;28;20046;-65
2023/09/17 07:03:34;;;;;;;20.15;18.48;;;972.90;1536.00;;;;;;5089670;28;20024;-62
2023/09/17 07:06:00;;;;;;;18.70;17.13;;;922.30;1612.80;;;;;;5090226;28;20020;-66
2023/09/17 07:08:26;;;;;;;18.52;17.00;;;922.50;1561.60;;;;;;5089901;28;20031;-66
2023/09/17 07:10:52;;;;;;;18.65;17.05;;;921.90;1612.80;;;;;;5089738;28;20067;-64
2023/09/17 07:13:17;;;;;;;20.27;18.77;;;973.20;1536.00;;;;;;5089963;28;20111;-66
2023/09/17 07:15:47;;;;;;;22.55;18.52;;;973.00;1510.40;;;;;;5090264;28;20028;-66
2023/09/17 07:18:13;;;;;;;20.75;18.98;;;947.40;1536.00;;;;;;5089662;28;20039;-63
2023/09/17 07:20:39;;;;;;;20.35;18.75;;;948.00;1536.00;;;;;;5089796;28;20028;-64
2023/09/17 07:23:05;;;;;;;19.38;17.85;;;948.10;1536.00;;;;;;5085527;28;20028;-65
2023/09/17 07:25:34;;;;;;;20.58;18.83;;;973.00;1536.00;;;;;;5064772;28;20099;-64
2023/09/17 07:28:04;;;;;;;18.95;17.23;;;973.20;1510.40;;;;;;5085575;28;20039;-65
2023/09/17 07:30:37;;;;;;;21.00;19.42;;;947.20;1561.60;;;;;;5090375;28;20056;-67
2023/09/17 07:33:06;;;;;;;21.52;19.73;;;973.60;1484.80;;;;;;5089715;28;20432;-67
2023/09/17 07:35:37;;;;;;;22.13;20.30;;;947.90;1536.00;;;;;;5089332;28;20089;-67
2023/09/17 07:38:03;;;;;;;21.50;19.70;;;922.00;1612.80;;;;;;5088901;28;20020;-66
2023/09/17 07:40:29;;;;;;;20.23;18.63;;;922.50;1587.20;;;;;;5089327;28;20053;-66
2023/09/17 07:42:55;;;;;;;21.08;19.25;;;948.10;1510.40;;;;;;5090007;28;20374;-63
2023/09/17 07:45:20;;;;;;;22.45;20.50;;;948.10;1510.40;;;;;;5089457;28;20493;-67
2023/09/17 07:47:46;;;;;;;20.92;19.15;;;998.50;1510.40;;;;;;5089636;28;20035;-67
2023/09/17 07:50:12;;;;;;;22.48;20.77;;;998.80;1484.80;;;;;;5089177;28;20024;-67
2023/09/17 07:52:40;;;;;;;23.42;21.35;;;1049.90;1408.00;;;;;;5089176;28;20729;-65
2023/09/17 07:55:06;;;;;;;23.17;21.35;;;998.80;1484.80;;;;;;5077288;28;20025;-67
2023/09/17 07:57:31;;;;;;;24.27;22.23;;;1049.60;1433.60;;;;;;5068045;28;20077;-66
2023/09/17 07:59:58;;;;;;;24.40;22.35;;;;;;;;;;5089050;28;20056;-67
2023/09/17 08:02:24;;;;;;;24.48;22.60;;;;;;;;;;5089008;28;20066;-67
2023/09/17 08:04:50;;;;;;;24.45;22.40;;;;;;;;;;5088901;28;20016;-68
2023/09/17 08:07:17;;;;;;;22.45;20.65;;;;;;;;;;5089433;28;20035;-66
2023/09/17 08:09:43;;;;;;;26.25;24.15;;;;;;;;;;5088410;28;20020;-65
2023/09/17 08:12:10;;;;;;;30.17;27.08;;;;;;;;;;5088740;28;20402;-66
2023/09/17 08:14:36;;;;;;;28.85;26.35;;;1050.10;1408.00;;;;;;5088673;28;20125;-66
2023/09/17 08:17:04;;;;;;;29.80;27.23;;;1075.40;1331.20;;;;;;5088542;28;20073;-67
2023/09/17 08:19:30;;;;;;;28.02;25.92;;;1050.50;1382.40;;;;;;5088586;28;20028;-65
2023/09/17 08:21:56;;;;;;;27.95;26.00;;;1050.40;1382.40;;;;;;5089139;28;20024;-67
2023/09/17 08:24:23;;;;;;;29.13;26.60;;;1024.00;1433.60;;;;;;5088608;28;20394;-67
2023/09/17 08:26:49;;;;;;;26.55;24.17;;;1049.90;1382.40;;;;;;5076961;28;20116;-67
2023/09/17 08:29:15;;;;;;;26.38;24.20;;;1050.10;1382.40;;;;;;5077487;28;20574;-68
2023/09/17 08:31:41;;;;;;;24.50;22.60;;;1024.40;1408.00;;;;;;5092162;28;20111;-66
2023/09/17 08:34:07;;;;;;;26.27;24.23;;;1049.60;1408.00;;;;;;5092292;28;20040;-68
2023/09/17 08:36:32;;;;;;;27.52;25.33;;;1024.30;1408.00;;;;;;5093162;28;20028;-67
2023/09/17 08:38:58;;;;;;;26.35;24.33;;;1049.60;1408.00;;;;;;5092116;28;20545;-68
2023/09/17 08:41:24;;;;;;;25.58;23.50;;;998.50;1484.80;;;;;;5093025;28;20028;-65
2023/09/17 08:43:52;;;;;;;25.25;23.20;;;998.70;1459.20;;;;;;5092762;28;20031;-66
2023/09/17 08:46:22;;;;;;;23.08;21.08;;;998.70;1459.20;;;;;;5092681;28;20024;-68
2023/09/17 08:48:47;;;;;;;24.77;22.67;;;947.80;1484.80;;;;;;5092739;28;20572;-67
2023/09/17 08:51:16;;;;;;;22.63;21.00;;;948.00;1484.80;;;;;;5092624;28;20043;-64
2023/09/17 08:54:08;;;;;;;21.58;19.80;;;947.80;1484.80;;;;;;5078008;28;20050;-67
2023/09/17 08:56:39;;;;;;;21.83;19.70;;;896.20;1587.20;;;;;;5081970;28;20456;-66
2023/09/17 08:59:36;;;;;;;20.88;19.15;;;871.00;1638.40;;;;;;5082953;28;20105;-67
2023/09/17 09:02:10;;;;;;;19.70;18.00;;;820.10;1715.20;;;;;;5075442;28;20055;-68
2023/09/17 09:04:37;;;;;;;18.83;17.33;;;844.90;1689.60;;;;;;5092539;28;20016;-66
2023/09/17 09:07:05;;;;;;;18.75;16.90;;;820.00;1715.20;;;;;;5078771;28;20031;-66
2023/09/17 09:09:34;;;;;;;16.98;15.15;;;794.50;1766.40;;;;;;5092355;28;20123;-67
2023/09/17 09:12:00;;;;;;;18.77;17.05;;;819.30;1766.40;;;;;;5090839;28;20625;-62
2023/09/17 09:14:27;;;;;;;25.92;23.23;;;;;;;;;;5092341;28;20047;-65
2023/09/17 09:16:53;;;;;;;19.42;17.67;;;;;;;;;;5091579;28;20024;-66
2023/09/17 09:19:18;;;;;;;20.00;18.08;;;793.60;1817.60;;;;;;5091656;28;20063;-66
2023/09/17 09:21:44;;;;;;;26.65;23.23;;;768.70;1817.60;;;;;;5092050;28;20047;-64
2023/09/17 09:24:10;;;;;;;18.08;16.27;;;793.70;1817.60;;;;;;5092363;28;20035;-67
2023/09/17 09:26:38;;;;;;;17.98;15.35;;;794.20;1792.00;;;;;;5092283;28;20409;-65
2023/09/17 09:29:05;;;;;;;16.40;14.70;;;794.20;1792.00;;;;;;5092081;28;20081;-66
2023/09/17 09:31:32;;;;;;;16.70;15.10;;;794.20;1766.40;;;;;;5091458;28;20028;-64
2023/09/17 09:34:02;;;;;;;15.88;13.90;;;794.30;1792.00;;;;;;5091839;28;20046;-66
2023/09/17 09:36:31;;;;;;;16.90;15.30;;;819.30;1715.20;;;;;;5082441;28;20074;-64
2023/09/17 09:38:57;;;;;;;17.15;15.45;;;794.00;1792.00;;;;;;5076250;28;20120;-69
2023/09/17 09:41:25;;;;;;;19.38;17.50;;;794.00;1792.00;;;;;;5091669;28;20494;-66
2023/09/17 09:43:52;;;;;;;17.10;15.60;;;819.20;1740.80;;;;;;5091553;28;20385;-68
2023/09/17 09:46:18;;;;;;;15.80;14.30;;;819.70;1715.20;;;;;;5091284;28;20319;-65
2023/09/17 09:48:46;;;;;;;17.02;15.52;;;819.60;1740.80;;;;;;5091094;28;20031;-66
2023/09/17 09:51:15;;;;;;;15.70;14.05;;;794.20;1766.40;;;;;;5091528;28;20517;-67
2023/09/17 09:53:41;;;;;;;16.17;14.70;;;794.20;1766.40;;;;;;5091358;28;20035;-67
2023/09/17 09:56:07;;;;;;;15.50;14.13;;;794.40;1766.40;;;;;;5091727;28;20103;-65
2023/09/17 09:58:33;;;;;;;18.13;16.27;;;819.20;1740.80;;;;;;5091523;28;20013;-64
2023/09/17 10:01:03;;;;;;;16.58;14.95;;;794.30;1740.80;;;;;;5091190;28;20028;-67
2023/09/17 10:03:29;;;;;;;17.88;16.08;;;793.80;1740.80;;;;;;5090921;28;20110;-65
2023/09/17 10:06:04;;;;;;;16.65;15.15;;;768.20;1792.00;;;;;;5091296;28;20028;-65
2023/09/17 10:08:30;;;;;;;16.30;14.73;;;768.40;1817.60;;;;;;5074854;28;20025;-66
2023/09/17 10:10:55;;;;;;;16.42;14.77;;;743.30;1843.20;;;;;;5080707;28;20028;-65
2023/09/17 10:13:21;;;;;;;19.92;17.83;;;743.10;1843.20;;;;;;5090197;28;20032;-67
2023/09/17 10:15:47;;;;;;;35.72;16.88;;;743.30;1843.20;;;;;;5091039;28;20028;-65
2023/09/17 10:18:14;;;;;;;18.27;16.50;;;768.40;1817.60;;;;;;5090787;28;20012;-66
2023/09/17 10:20:43;;;;;;;16.60;15.10;;;768.10;1817.60;;;;;;5090596;28;20081;-67
2023/09/17 10:23:12;;;;;;;17.08;15.38;;;768.30;1817.60;;;;;;5090881;28;20374;-66
2023/09/17 10:25:41;;;;;;;17.75;12.52;;;793.60;1817.60;;;;;;5090939;28;20466;-66
2023/09/17 10:28:10;;;;;;;15.10;13.75;;;794.10;1715.20;;;;;;5090581;28;20020;-66
2023/09/17 10:30:38;;;;;;;15.73;14.13;;;794.20;1689.60;;;;;;5090533;28;20027;-64
2023/09/17 10:33:07;;;;;;;14.63;13.15;;;794.50;1664.00;;;;;;5090969;28;20145;-65
2023/09/17 10:35:35;;;;;;;15.50;13.43;;;794.00;1715.20;;;;;;5090634;28;20035;-66
2023/09/17 10:38:04;;;;;;;14.20;12.80;;;793.70;1740.80;;;;;;5090218;28;20026;-66
2023/09/17 10:40:31;;;;;;;15.13;13.48;;;793.80;1740.80;;;;;;5068296;28;20052;-66
2023/09/17 10:43:01;;;;;;;15.65;14.00;;;793.70;1740.80;;;;;;5078626;28;20081;-66
2023/09/17 10:45:28;;;;;;;14.25;12.88;;;819.30;1715.20;;;;;;5090461;28;20020;-65
2023/09/17 10:47:57;;;;;;;16.73;15.02;;;794.50;1664.00;;;;;;5089414;28;20024;-64
2023/09/17 10:50:27;;;;;;;18.20;14.85;;;793.70;1740.80;;;;;;5090214;28;20092;-66
2023/09/17 10:52:53;;;;;;;14.35;13.05;;;794.00;1740.80;;;;;;5090211;28;20150;-66
2023/09/17 10:55:22;;;;;;;14.93;13.23;;;794.40;1715.20;;;;;;5089882;28;20020;-65
2023/09/17 10:57:54;;;;;;;17.05;14.80;;;793.70;1766.40;;;;;;5090634;28;20410;-66
2023/09/17 11:00:23;;;;;;;16.07;14.03;;;793.90;1766.40;;;;;;5090329;28;20024;-67
2023/09/17 11:02:55;;;;;;;15.50;13.52;;;794.50;1740.80;;;;;;5089999;28;20261;-66
2023/09/17 11:05:25;;;;;;;16.77;14.43;;;794.40;1792.00;;;;;;5089927;28;20024;-66
2023/09/17 11:08:00;;;;;;;15.18;13.68;;;793.80;1817.60;;;;;;5090543;28;20020;-65
2023/09/17 11:10:26;;;;;;;15.38;13.68;;;768.40;1868.80;;;;;;5069365;28;20032;-65
2023/09/17 11:12:52;;;;;;;15.23;13.82;;;768.40;1868.80;;;;;;5080400;28;20024;-67
2023/09/17 11:15:18;;;;;;;14.80;13.43;;;743.30;1894.40;;;;;;5089766;28;20028;-65
2023/09/17 11:17:46;;;;;;;17.92;14.02;;;743.00;1920.00;;;;;;5090018;28;20024;-66
2023/09/17 11:20:16;;;;;;;15.82;14.23;;;743.10;1894.40;;;;;;5089995;28;20032;-65
2023/09/17 11:22:43;;;;;;;17.08;13.98;;;768.10;1868.80;;;;;;5089733;28;20446;-66
2023/09/17 11:25:12;;;;;;;16.50;15.00;;;768.50;1868.80;;;;;;5090424;28;20173;-64
2023/09/17 11:27:51;;;;;;;16.00;14.60;;;768.60;1843.20;;;;;;5089803;28;20024;-66
2023/09/17 11:30:23;;;;;;;15.77;14.27;;;768.50;1843.20;;;;;;5079517;28;20032;-64
2023/09/17 11:32:53;;;;;;;18.13;14.40;;;743.30;1868.80;;;;;;5077357;28;20037;-65
2023/09/17 11:35:24;;;;;;;14.23;12.93;;;768.10;1920.00;;;;;;5084413;28;20063;-64
2023/09/17 11:37:51;;;;;;;17.35;13.93;;;743.00;1894.40;;;;;;5084696;28;20019;-67
2023/09/17 11:40:19;;;;;;;16.95;13.73;;;743.00;1920.00;;;;;;5089730;28;20048;-65
2023/09/17 11:42:46;;;;;;;15.50;13.90;;;768.00;1894.40;;;;;;5081735;28;20021;-66
2023/09/17 11:45:12;;;;;;;14.57;13.20;;;768.30;1868.80;;;;;;5070552;28;20043;-65
2023/09/17 11:47:40;;;;;;;15.55;14.25;;;743.20;1868.80;;;;;;5089075;28;20048;-66
2023/09/17 11:50:08;;;;;;;16.00;14.57;;;743.00;1894.40;;;;;;5089430;28;20054;-65
2023/09/17 11:52:34;;;;;;;15.15;13.75;;;743.30;1894.40;;;;;;5063693;28;20020;-64
2023/09/17 11:55:12;;;;;;;13.73;12.32;;;768.20;1868.80;;;;;;5089089;28;20032;-65
2023/09/17 11:57:38;;;;;;;18.23;14.45;;;768.00;1868.80;;;;;;5089728;28;20016;-67
2023/09/17 12:00:09;;;;;;;14.25;12.95;;;768.40;1843.20;;;;;;5088981;28;20024;-66